Time;durP1;ratioP1;P1;durP2;ratioP2;P2;SDS_P1;SDS_P2;PMS_P1;PMS_P2;Temp;Humidity;BMP_temperature;BMP_pressure;BME280_temperature;BME280_humidity;BME280_pressure;Samples;Min_cycle;Max_cycle;Signal;HPM_P1;HPM_P2
2022/05/01 00:01:27;;;;;;;11.60;9.57;;;8.90;99.90;;;;;;5007810;28;20510;-70
2022/05/01 00:03:53;;;;;;;13.10;9.80;;;8.90;99.90;;;;;;5007375;28;20515;-70
2022/05/01 00:06:19;;;;;;;11.05;9.77;;;8.80;99.90;;;;;;5009138;28;20046;-70
2022/05/01 00:08:46;;;;;;;11.35;9.35;;;8.80;99.90;;;;;;5012134;28;20038;-70
2022/05/01 00:11:13;;;;;;;13.35;10.15;;;8.90;99.90;;;;;;5011551;28;20046;-70
2022/05/01 00:13:40;;;;;;;13.70;10.32;;;8.80;99.90;;;;;;5012033;28;20045;-70
2022/05/01 00:16:06;;;;;;;14.10;10.18;;;8.80;99.90;;;;;;5011996;28;20034;-70
2022/05/01 00:18:32;;;;;;;13.65;10.43;;;8.80;99.90;;;;;;5011781;28;20084;-70
2022/05/01 00:20:58;;;;;;;14.63;10.02;;;8.80;99.90;;;;;;5008046;28;20046;-71
2022/05/01 00:23:23;;;;;;;16.35;10.82;;;8.80;99.90;;;;;;5004683;28;20053;-71
2022/05/01 00:25:49;;;;;;;12.45;10.07;;;8.80;99.90;;;;;;5003672;28;20128;-71
2022/05/01 00:28:15;;;;;;;13.93;10.75;;;8.70;99.90;;;;;;5012675;28;20038;-71
2022/05/01 00:30:42;;;;;;;16.73;11.13;;;8.70;99.90;;;;;;5003203;28;20057;-70
2022/05/01 00:38:37;;;;;;;16.33;10.70;;;8.70;99.90;;;;;;5011363;28;20042;-71
2022/05/01 00:41:07;;;;;;;12.75;10.80;;;8.70;99.90;;;;;;5011410;28;20049;-71
2022/05/01 00:43:53;;;;;;;12.18;10.73;;;8.70;99.90;;;;;;5011637;28;20050;-71
2022/05/01 00:46:19;;;;;;;14.02;10.93;;;8.70;99.90;;;;;;5007429;28;20048;-71
2022/05/01 00:48:44;;;;;;;12.80;10.57;;;8.70;99.90;;;;;;5007632;28;20047;-71
2022/05/01 00:51:10;;;;;;;14.05;11.45;;;8.70;99.90;;;;;;5006786;28;20045;-71
2022/05/01 00:53:36;;;;;;;17.20;11.00;;;8.70;99.90;;;;;;5011338;28;20042;-71
2022/05/01 00:56:02;;;;;;;16.48;11.25;;;8.60;99.90;;;;;;5011153;28;20050;-71
2022/05/01 00:58:29;;;;;;;13.05;11.18;;;8.60;99.90;;;;;;5011406;28;20042;-71
2022/05/01 01:00:56;;;;;;;14.32;11.10;;;8.60;99.90;;;;;;5011108;28;20065;-71
2022/05/01 01:03:21;;;;;;;12.90;11.25;;;8.60;99.90;;;;;;5011058;28;20511;-71
2022/05/01 01:05:47;;;;;;;14.52;11.65;;;8.60;99.90;;;;;;5010392;28;20046;-71
2022/05/01 01:08:13;;;;;;;15.13;11.73;;;8.60;99.90;;;;;;5011099;28;20053;-71
2022/05/01 01:10:39;;;;;;;13.45;11.90;;;8.60;99.90;;;;;;5010649;28;20204;-71
2022/05/01 01:13:04;;;;;;;14.00;11.75;;;8.60;99.90;;;;;;5011198;28;20170;-71
2022/05/01 01:15:31;;;;;;;16.55;12.75;;;8.60;99.90;;;;;;5010975;28;20046;-71
2022/05/01 01:17:58;;;;;;;14.55;11.15;;;8.60;99.90;;;;;;5011092;28;20070;-71
2022/05/01 01:20:25;;;;;;;11.90;10.63;;;8.60;99.90;;;;;;5010782;28;20038;-71
2022/05/01 01:22:54;;;;;;;14.23;10.60;;;8.50;99.90;;;;;;5010768;28;20073;-71
2022/05/01 01:25:23;;;;;;;13.73;11.70;;;8.50;99.90;;;;;;5010831;28;20124;-71
2022/05/01 01:27:50;;;;;;;12.95;11.40;;;8.50;99.90;;;;;;5010659;28;20125;-71
2022/05/01 01:33:02;;;;;;;14.70;12.70;;;8.50;99.90;;;;;;5018253;28;20057;-71
2022/05/01 01:35:29;;;;;;;15.20;12.73;;;8.40;99.90;;;;;;5017716;28;20516;-69
2022/05/01 01:37:56;;;;;;;13.75;11.48;;;8.50;99.90;;;;;;4974836;28;20543;-70
2022/05/01 01:40:34;;;;;;;16.80;12.20;;;8.40;99.90;;;;;;4993890;28;20049;-70
2022/05/01 01:43:01;;;;;;;15.50;11.60;;;8.40;99.90;;;;;;5009845;28;20512;-71
2022/05/01 01:45:28;;;;;;;16.90;12.15;;;8.40;99.90;;;;;;5008730;28;20439;-71
2022/05/01 01:47:57;;;;;;;20.20;13.05;;;8.40;99.90;;;;;;5008440;28;20042;-71
2022/05/01 01:50:24;;;;;;;17.38;13.60;;;8.40;99.90;;;;;;5008400;28;20540;-70
2022/05/01 01:52:50;;;;;;;17.63;12.80;;;8.40;99.90;;;;;;5008607;28;20048;-70
2022/05/01 01:55:17;;;;;;;19.15;13.05;;;8.40;99.90;;;;;;5008701;28;20121;-70
2022/05/01 01:57:45;;;;;;;16.75;13.15;;;8.40;99.90;;;;;;5008637;28;20459;-70
2022/05/01 02:00:12;;;;;;;15.43;12.50;;;8.40;99.90;;;;;;5010119;28;20491;-70
2022/05/01 02:02:38;;;;;;;15.32;12.02;;;8.40;99.90;;;;;;5010712;28;20388;-70
2022/05/01 02:05:05;;;;;;;15.38;12.68;;;8.40;99.90;;;;;;4994410;28;20038;-70
2022/05/01 02:07:31;;;;;;;14.38;12.57;;;8.40;99.90;;;;;;5011550;28;20431;-70
2022/05/01 02:09:57;;;;;;;16.23;12.52;;;8.40;99.90;;;;;;5010419;28;20489;-70
2022/05/01 02:12:23;;;;;;;16.58;13.02;;;8.40;99.90;;;;;;5010346;28;20470;-70
2022/05/01 02:14:49;;;;;;;17.50;13.95;;;8.40;99.90;;;;;;5008498;28;20113;-70
2022/05/01 02:17:15;;;;;;;13.60;11.90;;;8.40;99.90;;;;;;4994599;28;20033;-70
2022/05/01 02:19:41;;;;;;;15.50;12.02;;;8.40;99.90;;;;;;5005785;28;20392;-70
2022/05/01 02:22:07;;;;;;;15.93;12.50;;;8.30;99.90;;;;;;4997603;28;20100;-70
2022/05/01 02:24:34;;;;;;;16.80;13.63;;;8.30;99.90;;;;;;5013932;28;20500;-70
2022/05/01 02:27:00;;;;;;;16.73;13.20;;;8.30;99.90;;;;;;5013773;28;20038;-70
2022/05/01 02:29:27;;;;;;;15.93;12.88;;;8.30;99.90;;;;;;5013970;28;20049;-70
2022/05/01 02:31:55;;;;;;;16.45;13.77;;;8.30;99.90;;;;;;4997706;28;20037;-70
2022/05/01 02:34:23;;;;;;;15.60;13.38;;;8.30;99.90;;;;;;5013869;28;20134;-70
2022/05/01 02:36:51;;;;;;;14.80;13.13;;;8.30;99.90;;;;;;5013776;28;20046;-70
2022/05/01 02:39:17;;;;;;;17.52;13.57;;;8.30;99.90;;;;;;5014924;28;20065;-70
2022/05/01 02:41:43;;;;;;;16.58;14.13;;;8.30;99.90;;;;;;4997131;28;20042;-70
2022/05/01 02:44:10;;;;;;;17.33;14.50;;;8.30;99.90;;;;;;5013883;28;20107;-70
2022/05/01 02:46:36;;;;;;;17.05;14.32;;;8.30;99.90;;;;;;5013709;28;20045;-70
2022/05/01 02:49:02;;;;;;;17.23;14.80;;;8.30;99.90;;;;;;5013755;28;20512;-70
2022/05/01 02:51:28;;;;;;;16.15;14.35;;;8.30;99.90;;;;;;5013178;28;20111;-70
2022/05/01 02:53:55;;;;;;;16.98;14.63;;;8.20;99.90;;;;;;5013562;28;20089;-70
2022/05/01 02:56:20;;;;;;;16.60;14.60;;;8.30;99.90;;;;;;5013073;28;20042;-70
2022/05/01 02:58:46;;;;;;;19.63;15.40;;;8.30;99.90;;;;;;5013071;28;20526;-71
2022/05/01 03:01:11;;;;;;;17.25;14.15;;;8.30;99.90;;;;;;5010023;28;20574;-71
2022/05/01 03:03:37;;;;;;;17.17;15.35;;;8.20;99.90;;;;;;5004844;28;20520;-71
2022/05/01 03:06:03;;;;;;;17.25;15.25;;;8.30;99.90;;;;;;5006950;28;20073;-71
2022/05/01 03:08:29;;;;;;;17.38;14.98;;;8.20;99.90;;;;;;5011133;28;20120;-71
2022/05/01 03:10:55;;;;;;;23.98;15.70;;;8.20;99.90;;;;;;5007848;28;20569;-70
2022/05/01 03:13:20;;;;;;;17.48;15.52;;;8.20;99.90;;;;;;5009871;28;20120;-70
2022/05/01 03:15:46;;;;;;;18.35;16.27;;;8.20;99.90;;;;;;5013096;28;20554;-70
2022/05/01 03:23:41;;;;;;;19.27;15.75;;;8.20;99.90;;;;;;5013035;28;20129;-70
2022/05/01 03:26:06;;;;;;;19.25;15.27;;;8.20;99.90;;;;;;5012719;28;20161;-70
2022/05/01 03:28:32;;;;;;;21.67;16.05;;;8.20;99.90;;;;;;5011882;28;20053;-70
2022/05/01 03:30:58;;;;;;;22.95;16.15;;;8.20;99.90;;;;;;5012392;28;20586;-71
2022/05/01 03:33:25;;;;;;;23.27;16.80;;;8.20;99.90;;;;;;5013747;28;20130;-71
2022/05/01 03:35:51;;;;;;;18.10;16.17;;;8.20;99.90;;;;;;5012405;28;20037;-71
2022/05/01 03:38:17;;;;;;;21.25;15.68;;;8.20;99.90;;;;;;5012431;28;20451;-70
2022/05/01 03:40:47;;;;;;;19.73;15.68;;;8.20;99.90;;;;;;5012254;28;20484;-70
2022/05/01 03:43:17;;;;;;;19.63;15.73;;;8.20;99.90;;;;;;5012533;28;20084;-70
2022/05/01 03:45:43;;;;;;;19.58;16.05;;;8.20;99.90;;;;;;5008931;28;20165;-70
2022/05/01 03:48:08;;;;;;;19.27;16.55;;;8.20;99.90;;;;;;5005714;28;20083;-70
2022/05/01 03:50:35;;;;;;;18.23;15.95;;;8.20;99.90;;;;;;5001579;28;20042;-70
2022/05/01 03:53:04;;;;;;;18.85;15.50;;;8.20;99.90;;;;;;4992737;28;20034;-70
2022/05/01 03:55:33;;;;;;;20.67;16.85;;;8.20;99.90;;;;;;4992698;28;20054;-70
2022/05/01 03:58:00;;;;;;;18.45;16.45;;;8.20;99.90;;;;;;4992375;28;20041;-70
2022/05/01 04:00:25;;;;;;;21.45;16.38;;;8.20;99.90;;;;;;4992287;28;20042;-70
2022/05/01 04:02:53;;;;;;;19.45;16.23;;;8.20;99.90;;;;;;4992470;28;20042;-70
2022/05/01 04:05:19;;;;;;;18.48;16.08;;;8.20;99.90;;;;;;4992391;28;20077;-70
2022/05/01 04:07:45;;;;;;;19.88;16.40;;;8.20;99.90;;;;;;4992343;28;20068;-70
2022/05/01 04:10:12;;;;;;;20.20;16.25;;;8.20;99.90;;;;;;4992235;28;20038;-70
2022/05/01 04:12:38;;;;;;;19.92;17.25;;;8.20;99.90;;;;;;4992361;28;20043;-70
2022/05/01 04:15:07;;;;;;;18.48;16.52;;;8.10;99.90;;;;;;4992494;28;20392;-70
2022/05/01 04:17:38;;;;;;;19.88;17.58;;;8.10;99.90;;;;;;4978259;28;20052;-70
2022/05/01 04:20:12;;;;;;;20.08;17.02;;;8.10;99.90;;;;;;5011328;28;20122;-70
2022/05/01 04:22:42;;;;;;;22.98;17.45;;;8.10;99.90;;;;;;5010608;28;20038;-70
2022/05/01 04:25:17;;;;;;;24.17;17.08;;;8.10;99.90;;;;;;5031774;28;20038;-70
2022/05/01 04:27:44;;;;;;;20.63;16.83;;;8.10;99.90;;;;;;5011214;28;20042;-70
2022/05/01 04:30:15;;;;;;;19.38;16.60;;;8.10;99.90;;;;;;5009556;28;20049;-70
2022/05/01 04:32:51;;;;;;;21.48;17.30;;;8.10;99.90;;;;;;5011009;28;20440;-70
2022/05/01 04:35:21;;;;;;;18.35;16.45;;;8.10;99.90;;;;;;5009042;28;20034;-71
2022/05/01 04:37:47;;;;;;;18.38;16.40;;;8.10;99.90;;;;;;5010212;28;20038;-71
2022/05/01 04:40:14;;;;;;;23.35;17.08;;;8.10;99.90;;;;;;5035192;28;20052;-71
2022/05/01 04:42:41;;;;;;;18.92;15.70;;;8.10;99.90;;;;;;5011466;28;20435;-71
2022/05/01 04:45:08;;;;;;;19.95;17.15;;;8.10;99.90;;;;;;5011295;28;20050;-71
2022/05/01 04:47:34;;;;;;;22.00;16.52;;;8.10;99.90;;;;;;5044474;28;20399;-71
2022/05/01 04:49:59;;;;;;;20.33;17.08;;;8.10;99.90;;;;;;5012257;28;20038;-71
2022/05/01 04:52:25;;;;;;;19.48;16.60;;;8.10;99.90;;;;;;5026785;28;20066;-71
2022/05/01 04:54:51;;;;;;;19.15;16.55;;;8.10;99.90;;;;;;5011649;28;20076;-71
2022/05/01 04:57:17;;;;;;;19.55;16.75;;;8.10;99.90;;;;;;5007711;28;20100;-71
2022/05/01 04:59:43;;;;;;;21.90;16.45;;;8.10;99.90;;;;;;5002582;28;20061;-71
2022/05/01 05:02:09;;;;;;;19.33;16.58;;;8.10;99.90;;;;;;5008609;28;20472;-71
2022/05/01 05:04:35;;;;;;;20.42;16.58;;;8.10;99.90;;;;;;5006846;28;20046;-71
2022/05/01 05:07:01;;;;;;;19.88;16.13;;;8.10;99.90;;;;;;5008873;28;20053;-71
2022/05/01 05:12:11;;;;;;;24.10;15.50;;;8.20;99.90;;;;;;4999291;28;20070;-71
2022/05/01 05:14:37;;;;;;;19.65;16.25;;;8.20;99.90;;;;;;5008019;28;20068;-71
2022/05/01 05:17:06;;;;;;;20.05;15.32;;;8.20;99.90;;;;;;5006294;28;20568;-71
2022/05/01 05:19:34;;;;;;;19.00;16.20;;;8.20;99.90;;;;;;5009248;28;20036;-71
2022/05/01 05:22:00;;;;;;;23.90;15.85;;;8.30;99.90;;;;;;5008968;28;20041;-71
2022/05/01 05:24:26;;;;;;;21.98;16.48;;;8.20;99.90;;;;;;5008738;28;20042;-71
2022/05/01 05:26:51;;;;;;;19.67;16.85;;;8.30;99.90;;;;;;5007448;28;20132;-71
2022/05/01 05:29:17;;;;;;;18.92;16.35;;;8.20;99.90;;;;;;5009231;28;20077;-71
2022/05/01 05:31:42;;;;;;;18.48;16.58;;;8.30;99.90;;;;;;4998099;28;20049;-71
2022/05/01 05:34:08;;;;;;;19.02;16.17;;;8.40;99.90;;;;;;5003835;28;20481;-71
2022/05/01 05:36:34;;;;;;;22.90;17.30;;;8.40;99.90;;;;;;5006734;28;20129;-71
2022/05/01 05:39:00;;;;;;;17.88;15.98;;;8.40;99.90;;;;;;5005475;28;20130;-71
2022/05/01 05:41:26;;;;;;;19.52;15.55;;;8.50;99.90;;;;;;5001901;28;20042;-71
2022/05/01 05:43:52;;;;;;;21.52;15.43;;;8.50;99.90;;;;;;5008050;28;20096;-71
2022/05/01 05:46:17;;;;;;;18.50;15.70;;;8.60;99.90;;;;;;5006624;28;20072;-71
2022/05/01 05:48:43;;;;;;;19.25;16.00;;;8.60;99.90;;;;;;5004774;28;20057;-71
2022/05/01 05:51:09;;;;;;;17.25;15.45;;;8.60;99.90;;;;;;5005285;28;20044;-71
2022/05/01 05:53:34;;;;;;;20.17;15.75;;;8.70;99.90;;;;;;5005756;28;20089;-70
2022/05/01 05:56:00;;;;;;;17.45;14.82;;;8.70;99.90;;;;;;5009474;28;20041;-70
2022/05/01 05:58:26;;;;;;;17.70;15.05;;;8.70;99.90;;;;;;5010862;28;20037;-70
2022/05/01 06:00:52;;;;;;;17.08;14.85;;;8.70;99.90;;;;;;5005390;28;20048;-70
2022/05/01 06:03:19;;;;;;;17.48;15.57;;;8.80;99.90;;;;;;5012587;28;20042;-71
2022/05/01 06:05:46;;;;;;;17.50;15.57;;;8.80;99.90;;;;;;5002850;28;20038;-71
2022/05/01 06:08:12;;;;;;;16.58;14.73;;;8.90;99.90;;;;;;5000864;28;20702;-71
2022/05/01 06:10:38;;;;;;;20.55;14.82;;;8.90;99.90;;;;;;5002436;28;20038;-71
2022/05/01 06:13:04;;;;;;;17.88;15.27;;;8.90;99.90;;;;;;5013976;28;20488;-71
2022/05/01 06:15:30;;;;;;;19.00;15.68;;;9.00;99.90;;;;;;5013413;28;20044;-71
2022/05/01 06:17:56;;;;;;;20.63;14.82;;;8.90;99.90;;;;;;5012621;28;20045;-71
2022/05/01 06:20:22;;;;;;;20.10;15.38;;;9.00;99.90;;;;;;5012687;28;20038;-71
2022/05/01 06:22:51;;;;;;;16.77;14.65;;;9.10;99.90;;;;;;4996145;28;20120;-71
2022/05/01 06:25:17;;;;;;;19.70;14.73;;;9.10;99.90;;;;;;5010025;28;20095;-71
2022/05/01 06:27:44;;;;;;;16.88;14.70;;;9.10;99.90;;;;;;5010130;28;20160;-71
2022/05/01 06:30:11;;;;;;;16.35;14.65;;;9.20;99.90;;;;;;5006906;28;20785;-71
2022/05/01 06:32:41;;;;;;;17.20;15.05;;;9.20;99.90;;;;;;5002016;28;20076;-72
2022/05/01 06:35:07;;;;;;;16.85;14.40;;;9.30;99.90;;;;;;4993447;28;20035;-72
2022/05/01 06:37:37;;;;;;;16.50;13.95;;;9.20;99.90;;;;;;4995251;28;20562;-72
2022/05/01 06:40:05;;;;;;;17.02;14.07;;;9.20;99.90;;;;;;4994102;28;20034;-72
2022/05/01 06:42:32;;;;;;;16.73;14.90;;;9.20;99.90;;;;;;4978095;28;20054;-72
2022/05/01 06:44:58;;;;;;;16.40;14.00;;;9.30;99.90;;;;;;4993907;28;20074;-72
2022/05/01 06:47:24;;;;;;;17.80;13.82;;;9.30;99.90;;;;;;4977616;28;20093;-73
2022/05/01 06:49:50;;;;;;;17.30;14.23;;;9.40;99.90;;;;;;4993871;28;20058;-73
2022/05/01 06:52:22;;;;;;;17.98;14.00;;;9.40;99.90;;;;;;4993705;28;20051;-72
2022/05/01 06:54:47;;;;;;;17.13;14.67;;;9.50;99.90;;;;;;4994211;28;20039;-73
2022/05/01 06:57:13;;;;;;;16.98;14.43;;;9.50;99.90;;;;;;4993710;28;20045;-72
2022/05/01 06:59:38;;;;;;;18.55;14.80;;;9.60;99.90;;;;;;4993679;28;20049;-73
2022/05/01 07:02:04;;;;;;;16.95;14.30;;;9.70;99.90;;;;;;4994156;28;20042;-72
2022/05/01 07:04:30;;;;;;;17.08;13.93;;;9.70;99.90;;;;;;4993243;28;20050;-72
2022/05/01 07:06:55;;;;;;;17.63;14.27;;;9.70;99.90;;;;;;4993409;28;20053;-72
2022/05/01 07:09:21;;;;;;;16.83;13.82;;;9.80;99.90;;;;;;4993801;28;20133;-73
2022/05/01 07:11:46;;;;;;;18.52;13.98;;;9.80;99.90;;;;;;4993024;28;20081;-73
2022/05/01 07:14:12;;;;;;;16.90;14.13;;;9.90;99.90;;;;;;4993691;28;20046;-72
2022/05/01 07:16:38;;;;;;;15.90;12.90;;;10.00;99.90;;;;;;4993437;28;20057;-72
2022/05/01 07:19:03;;;;;;;18.55;13.20;;;10.10;99.90;;;;;;4993520;28;20060;-72
2022/05/01 07:21:29;;;;;;;18.35;13.18;;;10.20;99.90;;;;;;4993067;28;20053;-72
2022/05/01 07:23:54;;;;;;;15.30;13.35;;;10.30;99.90;;;;;;4993492;28;20050;-72
2022/05/01 07:26:20;;;;;;;14.65;13.15;;;10.30;99.90;;;;;;4993455;28;20078;-72
2022/05/01 07:28:46;;;;;;;15.25;12.80;;;10.40;99.90;;;;;;4993417;28;20043;-72
2022/05/01 07:31:11;;;;;;;14.35;12.93;;;10.50;99.90;;;;;;4992883;28;20042;-73
2022/05/01 07:33:37;;;;;;;18.70;13.63;;;10.60;99.90;;;;;;4977135;28;20096;-73
2022/05/01 07:36:03;;;;;;;15.15;13.32;;;10.70;99.90;;;;;;4993229;28;20117;-72
2022/05/01 07:38:29;;;;;;;13.98;11.98;;;10.70;99.90;;;;;;4992951;28;20041;-73
2022/05/01 07:40:54;;;;;;;15.57;12.98;;;10.80;99.90;;;;;;4993335;28;20042;-73
2022/05/01 07:43:20;;;;;;;16.98;13.48;;;10.80;99.90;;;;;;5011778;28;20042;-73
2022/05/01 07:45:46;;;;;;;15.00;13.32;;;10.90;99.90;;;;;;5012595;28;20073;-73
2022/05/01 07:48:11;;;;;;;12.93;11.43;;;10.90;99.90;;;;;;5012192;28;20041;-72
2022/05/01 07:50:37;;;;;;;14.02;11.77;;;11.00;99.90;;;;;;5012123;28;20046;-72
2022/05/01 07:53:03;;;;;;;13.27;11.80;;;11.20;99.90;;;;;;5012490;28;20037;-73
2022/05/01 07:55:28;;;;;;;14.15;11.38;;;11.30;99.90;;;;;;5012551;28;20042;-73
2022/05/01 07:57:54;;;;;;;13.07;11.75;;;11.20;99.90;;;;;;5012153;28;20096;-73
2022/05/01 08:00:20;;;;;;;13.85;10.70;;;11.20;99.90;;;;;;5012074;28;20041;-72
2022/05/01 08:05:30;;;;;;;10.45;8.55;;;11.40;99.90;;;;;;5012148;28;20045;-72
2022/05/01 08:07:57;;;;;;;10.43;9.32;;;11.50;99.90;;;;;;5012213;28;20096;-72
2022/05/01 08:10:23;;;;;;;10.77;9.68;;;11.60;99.90;;;;;;5011897;28;20129;-72
2022/05/01 08:12:50;;;;;;;11.93;9.80;;;11.70;99.90;;;;;;5011835;28;20038;-72
2022/05/01 08:15:19;;;;;;;10.00;9.00;;;11.70;99.90;;;;;;5011384;28;20041;-72
2022/05/01 08:17:45;;;;;;;13.02;9.38;;;11.80;99.90;;;;;;5011716;28;20046;-72
2022/05/01 08:23:04;;;;;;;10.23;9.00;;;12.00;99.90;;;;;;5012001;28;20037;-73
2022/05/01 08:25:30;;;;;;;12.15;8.77;;;12.10;99.90;;;;;;5011522;28;20125;-73
2022/05/01 08:27:56;;;;;;;10.63;9.13;;;12.20;99.90;;;;;;5011395;28;20125;-73
2022/05/01 08:30:22;;;;;;;12.85;9.45;;;12.20;99.90;;;;;;5011252;28;20037;-73
2022/05/01 08:32:47;;;;;;;11.07;8.90;;;12.30;99.90;;;;;;5011545;28;20046;-73
2022/05/01 08:35:13;;;;;;;9.90;8.70;;;12.40;99.90;;;;;;5011516;28;20484;-73
2022/05/01 08:37:40;;;;;;;10.90;8.35;;;12.50;99.90;;;;;;5011384;28;20074;-73
2022/05/01 08:40:10;;;;;;;10.65;7.97;;;12.60;99.90;;;;;;5011054;28;20037;-73
2022/05/01 08:42:36;;;;;;;10.20;8.25;;;12.50;99.90;;;;;;5011396;28;20045;-73
2022/05/01 08:45:05;;;;;;;10.32;7.90;;;12.60;99.90;;;;;;5011320;28;20037;-73
2022/05/01 08:47:40;;;;;;;9.50;7.85;;;12.60;99.90;;;;;;5011256;28;20049;-73
2022/05/01 08:50:08;;;;;;;12.50;8.52;;;12.70;99.90;;;;;;5011034;28;20053;-74
2022/05/01 08:52:37;;;;;;;16.10;8.50;;;12.80;99.90;;;;;;5011032;28;20045;-73
2022/05/01 08:55:05;;;;;;;9.88;7.88;;;12.90;99.90;;;;;;5011460;28;20075;-73
2022/05/01 08:57:33;;;;;;;12.18;7.80;;;12.90;99.90;;;;;;4994674;28;20045;-73
2022/05/01 08:59:58;;;;;;;9.60;7.93;;;12.90;99.90;;;;;;5011152;28;20052;-72
2022/05/01 09:02:25;;;;;;;9.23;8.25;;;13.00;99.90;;;;;;5012051;28;20049;-72
2022/05/01 09:04:51;;;;;;;8.93;7.65;;;12.90;99.90;;;;;;5012413;28;20095;-72
2022/05/01 09:07:16;;;;;;;9.93;7.40;;;12.90;99.90;;;;;;5011495;28;20037;-72
2022/05/01 09:09:42;;;;;;;10.70;7.95;;;12.90;99.90;;;;;;5010786;28;20049;-72
2022/05/01 09:14:53;;;;;;;9.35;7.78;;;13.00;99.90;;;;;;5010923;28;20129;-72
2022/05/01 09:17:21;;;;;;;11.10;7.70;;;13.00;99.90;;;;;;4994435;28;20130;-72
2022/05/01 09:19:53;;;;;;;9.85;7.55;;;13.10;99.90;;;;;;5010558;28;20044;-73
2022/05/01 09:22:20;;;;;;;8.35;7.20;;;13.30;99.90;;;;;;5010761;28;20038;-73
2022/05/01 09:24:52;;;;;;;10.65;7.82;;;13.30;99.90;;;;;;5010845;28;20125;-73
2022/05/01 09:27:32;;;;;;;11.30;8.13;;;13.40;99.90;;;;;;5009979;28;20038;-73
2022/05/01 09:30:16;;;;;;;8.77;6.95;;;13.70;99.90;;;;;;5010480;28;20045;-72
2022/05/01 09:32:43;;;;;;;11.20;7.43;;;14.00;99.90;;;;;;4994406;28;20038;-72
2022/05/01 09:35:26;;;;;;;8.45;6.68;;;14.30;97.60;;;;;;5010717;28;20124;-72
2022/05/01 09:38:21;;;;;;;7.85;6.47;;;14.50;97.40;;;;;;5010568;28;20042;-73
2022/05/01 09:40:58;;;;;;;10.73;7.00;;;14.70;97.20;;;;;;5010394;28;20129;-73
2022/05/01 09:43:42;;;;;;;7.53;6.32;;;14.80;98.60;;;;;;5007270;28;20056;-73
2022/05/01 09:46:18;;;;;;;8.02;6.28;;;15.00;94.70;;;;;;5008712;28;20056;-72
2022/05/01 09:48:59;;;;;;;7.85;6.55;;;15.20;93.00;;;;;;5008333;28;20503;-72
2022/05/01 09:51:25;;;;;;;10.90;6.57;;;15.60;89.90;;;;;;5008057;28;20056;-73
2022/05/01 09:53:51;;;;;;;7.82;6.47;;;15.60;89.90;;;;;;4992130;28;20061;-72
2022/05/01 09:56:17;;;;;;;10.38;6.07;;;15.50;92.20;;;;;;5009420;28;20073;-72
2022/05/01 09:58:43;;;;;;;6.63;5.85;;;15.60;91.00;;;;;;4992307;28;20072;-72
2022/05/01 10:01:14;;;;;;;8.43;6.07;;;15.70;83.00;;;;;;5009123;28;20050;-73
2022/05/01 10:03:42;;;;;;;6.97;6.10;;;15.90;79.80;;;;;;5010735;28;20077;-73
2022/05/01 10:06:11;;;;;;;9.25;6.55;;;15.90;76.80;;;;;;5010336;28;20042;-73
2022/05/01 10:08:38;;;;;;;7.55;5.80;;;16.00;80.90;;;;;;5010461;28;20053;-72
2022/05/01 10:11:05;;;;;;;7.32;5.70;;;16.00;78.70;;;;;;5010022;28;20078;-73
2022/05/01 10:13:32;;;;;;;6.72;5.63;;;16.00;73.00;;;;;;5010629;28;20046;-73
2022/05/01 10:15:59;;;;;;;9.23;5.25;;;16.20;74.90;;;;;;5010276;28;20040;-73
2022/05/01 10:18:25;;;;;;;7.32;5.30;;;16.20;72.90;;;;;;5010271;28;20030;-73
2022/05/01 10:20:51;;;;;;;6.60;4.68;;;16.10;70.20;;;;;;5010079;28;20049;-73
2022/05/01 10:23:17;;;;;;;6.57;5.00;;;16.00;72.90;;;;;;5010230;28;20046;-73
2022/05/01 10:25:54;;;;;;;7.40;5.10;;;16.00;75.40;;;;;;5010142;28;20042;-73
2022/05/01 10:28:40;;;;;;;7.22;5.20;;;15.90;73.70;;;;;;4994026;28;20045;-73
2022/05/01 10:34:47;;;;;;;7.95;5.22;;;15.90;76.00;;;;;;5010123;28;20049;-73
2022/05/01 10:37:33;;;;;;;5.95;5.00;;;16.10;74.80;;;;;;4995044;28;20038;-73
2022/05/01 10:40:01;;;;;;;6.57;5.20;;;16.70;68.60;;;;;;5013355;28;20044;-73
2022/05/01 10:42:38;;;;;;;6.78;4.70;;;16.90;68.40;;;;;;5013582;28;20050;-73
2022/05/01 10:45:22;;;;;;;5.93;5.18;;;17.10;67.30;;;;;;5013869;28;20073;-73
2022/05/01 10:47:49;;;;;;;8.38;4.82;;;17.10;62.80;;;;;;5013720;28;20046;-73
2022/05/01 10:50:23;;;;;;;8.10;4.80;;;17.10;64.40;;;;;;5013231;28;20050;-73
2022/05/01 10:53:05;;;;;;;7.50;5.43;;;17.10;66.70;;;;;;5013339;28;20076;-73
2022/05/01 10:55:47;;;;;;;5.70;4.40;;;16.90;64.70;;;;;;5013592;28;20038;-73
2022/05/01 10:58:27;;;;;;;7.25;4.00;;;16.60;62.90;;;;;;5014142;28;20312;-75
2022/05/01 11:00:54;;;;;;;5.28;3.90;;;16.40;64.90;;;;;;5013379;28;20093;-73
2022/05/01 11:03:28;;;;;;;4.95;4.40;;;16.30;63.60;;;;;;5013405;28;20048;-73
2022/05/01 11:06:14;;;;;;;5.57;4.00;;;15.90;62.40;;;;;;5013078;28;20042;-73
2022/05/01 11:08:40;;;;;;;6.93;4.60;;;15.60;61.00;;;;;;5012926;28;20140;-73
2022/05/01 11:11:10;;;;;;;4.78;4.10;;;15.30;62.90;;;;;;5012940;28;20034;-73
2022/05/01 11:13:38;;;;;;;4.07;3.67;;;15.20;64.30;;;;;;5013282;28;20089;-73
2022/05/01 11:16:07;;;;;;;4.78;4.18;;;15.10;61.70;;;;;;5013016;28;20042;-73
2022/05/01 11:18:42;;;;;;;7.15;4.20;;;15.00;62.70;;;;;;5013121;28;20050;-73
2022/05/01 11:21:20;;;;;;;6.63;4.70;;;14.90;63.80;;;;;;5012910;28;20045;-73
2022/05/01 11:23:56;;;;;;;8.68;4.75;;;14.90;65.40;;;;;;5012773;28;20046;-73
2022/05/01 11:26:22;;;;;;;5.78;4.70;;;14.90;66.90;;;;;;5013007;28;20052;-73
2022/05/01 11:29:13;;;;;;;4.97;4.13;;;14.90;67.30;;;;;;5012935;28;20045;-73
2022/05/01 11:31:49;;;;;;;6.47;4.80;;;15.10;66.30;;;;;;5012533;28;20045;-73
2022/05/01 11:34:18;;;;;;;7.40;4.97;;;15.10;65.70;;;;;;5013162;28;20053;-73
2022/05/01 11:36:57;;;;;;;6.00;4.72;;;15.20;64.40;;;;;;5012735;28;20042;-73
2022/05/01 11:39:41;;;;;;;5.45;4.78;;;15.10;66.40;;;;;;5012471;28;20034;-73
2022/05/01 11:42:32;;;;;;;6.00;4.50;;;15.00;67.90;;;;;;5012815;28;20046;-73
2022/05/01 11:45:00;;;;;;;9.30;4.93;;;15.10;65.70;;;;;;5012820;28;20488;-73
2022/05/01 11:47:30;;;;;;;6.75;5.22;;;15.10;67.70;;;;;;5012505;28;20052;-73
2022/05/01 11:49:56;;;;;;;6.75;5.18;;;15.30;66.60;;;;;;5011377;28;20045;-73
2022/05/01 11:52:24;;;;;;;6.03;5.15;;;15.20;66.40;;;;;;5012209;28;20053;-73
2022/05/01 11:54:51;;;;;;;6.25;4.93;;;15.30;66.60;;;;;;5012636;28;20077;-73
2022/05/01 12:03:03;;;;;;;5.95;5.35;;;15.30;65.00;;;;;;5010033;28;20053;-74
2022/05/01 12:05:40;;;;;;;6.57;5.10;;;15.30;64.50;;;;;;5010295;28;20512;-73
2022/05/01 12:08:06;;;;;;;5.53;4.63;;;15.30;64.70;;;;;;5007253;28;20189;-74
2022/05/01 12:10:32;;;;;;;6.85;4.72;;;15.30;62.30;;;;;;5010593;28;20558;-73
2022/05/01 12:12:57;;;;;;;5.82;5.22;;;15.30;61.80;;;;;;5001214;28;20034;-75
2022/05/01 12:15:24;;;;;;;6.50;4.60;;;15.20;62.40;;;;;;5005931;28;20096;-74
2022/05/01 12:17:51;;;;;;;6.97;4.82;;;15.40;63.30;;;;;;4993873;28;20149;-74
2022/05/01 12:20:16;;;;;;;6.13;4.28;;;15.50;64.60;;;;;;5007673;28;20041;-74
2022/05/01 12:22:43;;;;;;;5.15;4.35;;;15.80;65.80;;;;;;5008842;28;20049;-73
2022/05/01 12:25:11;;;;;;;5.78;4.50;;;16.00;62.90;;;;;;5003726;28;20042;-74
2022/05/01 12:27:41;;;;;;;5.45;4.93;;;16.10;60.40;;;;;;5009081;28;20042;-73
2022/05/01 12:30:09;;;;;;;6.00;4.28;;;16.30;63.20;;;;;;5003462;28;20404;-73
2022/05/01 12:32:36;;;;;;;4.70;4.18;;;16.50;63.50;;;;;;5009366;28;20041;-73
2022/05/01 12:35:04;;;;;;;8.00;4.90;;;16.70;64.40;;;;;;5005783;28;20038;-73
2022/05/01 12:37:35;;;;;;;4.85;3.67;;;16.90;61.70;;;;;;5011329;28;20049;-73
2022/05/01 12:40:03;;;;;;;6.55;3.75;;;16.90;56.30;;;;;;5011338;28;20034;-73
2022/05/01 12:45:22;;;;;;;5.07;3.90;;;16.90;58.30;;;;;;5002413;28;20389;-74
2022/05/01 12:47:50;;;;;;;6.07;3.83;;;16.90;58.10;;;;;;5010657;28;20571;-74
2022/05/01 12:50:18;;;;;;;4.15;3.75;;;17.00;59.30;;;;;;5009726;28;20088;-74
2022/05/01 12:52:48;;;;;;;4.53;3.67;;;16.60;56.30;;;;;;5010189;28;20421;-74
2022/05/01 12:55:19;;;;;;;7.03;3.72;;;16.50;58.30;;;;;;5008577;28;20566;-74
2022/05/01 12:57:57;;;;;;;5.45;4.03;;;16.70;57.50;;;;;;5000327;28;20034;-74
2022/05/01 13:00:36;;;;;;;4.47;3.58;;;16.50;54.70;;;;;;4992352;28;20046;-74
2022/05/01 13:03:16;;;;;;;3.33;3.03;;;16.60;55.10;;;;;;4989652;28;20481;-74
2022/05/01 13:05:56;;;;;;;5.57;3.38;;;16.40;55.20;;;;;;4989419;28;20415;-74
2022/05/01 13:08:22;;;;;;;3.85;3.28;;;16.40;53.40;;;;;;4989490;28;20492;-74
2022/05/01 13:11:09;;;;;;;3.92;3.35;;;16.20;54.80;;;;;;4988708;28;20097;-74
2022/05/01 13:14:01;;;;;;;4.65;3.40;;;16.10;53.60;;;;;;4990994;28;20038;-74
2022/05/01 13:16:30;;;;;;;4.20;3.28;;;16.00;53.30;;;;;;4991600;28;20547;-74
2022/05/01 13:19:09;;;;;;;5.93;3.30;;;16.10;54.30;;;;;;4975033;28;20045;-74
2022/05/01 13:21:38;;;;;;;7.75;3.63;;;16.20;53.60;;;;;;4991127;28;20432;-74